• Join FlightAware (Why Join?)
  • Login
  • US Flag 
03:48AM EDT


 

Airport Tracker/Info


-or-


 

Live Flight TrackerFlight Track Log ✈ EXS315 ✈ 23-Apr-2013 ✈ EGNM / LBA - LFPG / CDG

Flight Track Log - Related Links

Times and Time Zones

All times are in EDT time to prevent confusion due to time zone crossing. See the EXS315 flight status page for this flight to view local times or setup timezone preferences in your user account.

Time Position Orientation Groundspeed Altitude Reporting Facility
EDT Latitude Longitude Course Direction KTS MPH feet Rate Location/Type
09:40AM 50.0387 0.9683 42° Northeast 404 465 24,300  Level FlightAware UK
09:40AM 50.0500 0.9840 151° Southeast 429 494 25,600 -540 Climbing FlightAware
09:40AM 49.9568 1.0359 151° Southeast 378 435 23,900 -480 Descending FlightAware UK
09:40AM 49.9840 1.0400 151° Southeast 405 466 25,300 -2,820 Climbing FlightAware
09:41AM 49.9062 1.0785 151° Southeast 396 456 22,500 -2,280 Descending FlightAware UK
09:41AM 49.9190 1.0950 151° Southeast 416 479 23,800 -1,020 Climbing FlightAware
09:41AM 49.8548 1.1202 151° Southeast 396 456 22,000 -3,420 Descending FlightAware UK
09:42AM 49.8137 1.1540 152° Southeast 398 458 21,600 2,880 Descending FlightAware UK
09:42AM 49.8510 1.1510 152° Southeast 418 481 23,200 -1,020 Climbing FlightAware
09:42AM 49.7723 1.1874 152° Southeast 398 458 21,200 -3,420 Descending FlightAware UK
09:42AM 49.7411 1.2130 152° Southeast 396 456 20,900 1,620 Descending FlightAware UK
09:43AM 49.7510 1.2340 152° Southeast 405 466 22,200 -1,680 Climbing FlightAware
09:43AM 49.6800 1.2629 152° Southeast 382 440 19,900 -2,100 Descending FlightAware UK
09:43AM 49.6840 1.2890 152° Southeast 403 464 20,800 -2,340 Climbing FlightAware
09:44AM 49.6109 1.3190 152° Southeast 380 437 18,300 -5,220 Descending FlightAware UK
09:44AM 49.5813 1.3429 152° Southeast 378 435 17,600 1,560 Descending FlightAware UK
09:44AM 49.6110 1.3480 152° Southeast 388 447 19,000 -180 Climbing FlightAware
09:45AM 49.5480 1.4010 151° Southeast 385 443 17,500 -4,080 Descending FlightAware
09:45AM 49.4757 1.4286 151° Southeast 368 423 15,100 -5,040 Descending FlightAware UK
09:45AM 49.4471 1.4519 152° Southeast 366 421 14,500 2,400 Descending FlightAware UK
09:46AM 49.4850 1.4530 152° Southeast 370 426 16,000 -2,340 Climbing FlightAware
09:46AM 49.3926 1.4960 152° Southeast 356 410 13,100 -2,160 Descending FlightAware UK
09:46AM 49.4170 1.5080 152° Southeast 367 422 14,400 -2,040 Climbing FlightAware
09:47AM 49.3205 1.5538 152° Southeast 344 396 11,500 -1,980 Descending FlightAware UK
09:47AM 49.3600 1.5570 152° Southeast 356 410 13,100 4,500 Climbing FlightAware
09:47AM 49.3440 1.5860 130° Southeast 352 405 13,000 -420 Descending FlightAware
09:47AM 49.3350 1.6230 110° East 347 399 12,900 -2,400 Descending FlightAware
09:48AM 49.2927 1.7063 110° East 336 387 11,200 -480 Descending FlightAware UK
09:48AM 49.3310 1.7190 110° East 346 398 12,600 -2,220 Climbing FlightAware
09:48AM 49.2896 1.7801 110° East 1 1 10,100 -4,980 Descending FlightAware UK
09:49AM 49.2876 1.8243 94° East 344 396 9,400 3,120 Descending FlightAware UK
09:49AM 49.3270 1.8180 94° East 347 399 11,100 300 Climbing FlightAware
09:49AM 49.2859 1.8686 94° East 330 380 9,500 -180 Descending FlightAware UK
09:50AM 49.3230 1.9250 94° East 334 384 11,000  Climbing FlightAware
09:50AM 49.2813 1.9972 94° East 330 380 9,500  Descending FlightAware UK
09:50AM 49.3190 2.0190 94° East 336 387 11,000 2,460 Climbing FlightAware
09:51AM 49.3168 2.0826 93° East 338 389 11,000  Level FlightAware ADS-B
09:51AM 49.3139 2.1575 93° East 337 388 11,000 -2,040 Level FlightAware ADS-B
09:51AM 49.2712 2.1937 93° East 308 354 9,400  Descending FlightAware UK
09:52AM 49.3113 2.2296 93° East 337 388 11,000 1,920 Climbing FlightAware ADS-B
09:52AM 49.3091 2.2969 93° East 275 316 11,000 -1,920 Level FlightAware ADS-B
09:52AM 49.2665 2.3322 93° East 264 304 9,400 -2,700 Descending FlightAware UK
09:53AM 49.2651 2.3682 93° East 262 302 9,400 3,060 Level FlightAware UK
09:53AM 49.3053 2.3883 93° East 264 304 11,000 1,620 Climbing FlightAware ADS-B
09:54AM 49.3013 2.4663 94° East 265 305 10,900 -780 Descending FlightAware ADS-B
09:54AM 49.2982 2.5246 95° East 264 304 10,100 -1,440 Descending FlightAware ADS-B
09:54AM 49.2967 2.5372 100° East 264 304 10,000 -1,200 Descending FlightAware ADS-B
09:55AM 49.2926 2.5691 101° East 263 303 9,600 -1,560 Descending FlightAware ADS-B
09:55AM 49.2888 2.6017 100° East 265 305 9,100 -1,140 Descending FlightAware ADS-B
09:55AM 49.2855 2.6306 100° East 264 304 9,000 -120 Descending FlightAware ADS-B
09:56AM 49.2788 2.6940 99° East 266 306 9,000  Level FlightAware ADS-B
09:56AM 49.2757 2.7231 99° East 266 306 9,000  Level FlightAware ADS-B
09:56AM 49.2727 2.7517 99° East 268 308 9,000  Level FlightAware ADS-B
09:57AM 49.2696 2.7810 99° East 269 310 9,000  Level FlightAware ADS-B
09:57AM 49.2658 2.8154 100° East 269 310 9,000  Level FlightAware ADS-B
09:58AM 49.2570 2.9020 99° East 266 306 9,000 -180 Level FlightAware
09:58AM 49.2510 2.9490 101° East 263 303 8,800 -780 Descending FlightAware
09:59AM 49.2450 3.0050 99° East 256 295 8,300 -1,320 Descending FlightAware
09:59AM 49.2423 3.0338 98° East 256 295 7,900 -1,740 Descending FlightAware ADS-B
09:59AM 49.2368 3.0687 104° East 257 296 7,400 -1,440 Descending FlightAware ADS-B
09:59AM 49.2292 3.0834 128° Southeast 258 297 7,200 -1,320 Descending FlightAware ADS-B
09:59AM 49.2256 3.0877 142° Southeast 258 297 7,100 -1,380 Descending FlightAware ADS-B
10:00AM 49.1670 3.1000 172° South 256 295 5,900 -1,320 Descending FlightAware
10:01AM 49.1380 3.1010 179° South 243 280 5,400 -1,080 Descending FlightAware
10:01AM 49.1230 3.0900 206° Southwest 233 268 5,200 -600 Descending FlightAware
10:01AM 49.1130 3.0710 231° Southwest 238 274 5,100 -480 Descending FlightAware
10:02AM 49.0980 3.0340 238° Southwest 235 270 4,900 -480 Descending FlightAware
10:02AM 49.0940 3.0100 256° West 232 267 4,800 -420 Descending FlightAware
10:02AM 49.0920 2.9880 262° West 230 265 4,700 -180 Descending FlightAware
10:03AM 49.0900 2.9370 267° West 229 264 4,700 -120 Level FlightAware
10:03AM 49.0880 2.8990 265° West 213 245 4,600 -600 Descending FlightAware
10:03AM 49.0870 2.8770 266° West 209 241 4,300 -1,620 Descending FlightAware
10:04AM 49.0840 2.8330 264° West 200 230 3,400 -1,320 Descending FlightAware
10:04AM 49.0830 2.8000 267° West 176 203 3,100 -600 Descending FlightAware
10:04AM 49.0820 2.7830 265° West 165 190 3,000 -960 Descending FlightAware
10:05AM 49.0795 2.7442 264° West 162 186 2,400 -1,200 Descending FlightAware ADS-B
10:05AM 49.0785 2.7240 266° West 159 183 2,100 -780 Descending FlightAware ADS-B
10:05AM 49.0777 2.7083 266° West 152 175 2,000 -660 Descending FlightAware ADS-B
10:06AM 49.0766 2.6924 264° West 148 170 1,800 -840 Descending FlightAware ADS-B
10:06AM 49.0763 2.6851 266° West 149 171 1,700 -900 Descending FlightAware ADS-B
10:06AM 49.0759 2.6779 265° West 145 167 1,600 -780 Descending FlightAware ADS-B
10:06AM 49.0754 2.6697 265° West 141 162 1,500 -720 Descending FlightAware ADS-B
10:06AM 49.0749 2.6599 266° West 141 162 1,400 -1,020 Descending FlightAware ADS-B
10:06AM 49.0744 2.6515 265° West 134 154 1,200 -840 Descending FlightAware ADS-B
10:07AM 49.0740 2.6463 263° West 130 150 1,200 -360 Level FlightAware ADS-B
10:07AM 49.0735 2.6355 266° West 127 146 1,100 -660 Descending FlightAware ADS-B
10:07AM 49.0730 2.6288 263° West 127 146 1,000 -1,080 Descending FlightAware ADS-B
10:07AM 49.0725 2.6198 265° West 127 146 800 -840 Descending FlightAware ADS-B
10:07AM 49.0723 2.6153 266° West 127 146 800 -600 Level FlightAware ADS-B
10:07AM 49.0715 2.6014 265° West 130 150 600 -780 Descending FlightAware ADS-B
10:08AM 49.0708 2.5880 265° West 131 151 400 -600 Descending FlightAware ADS-B
10:08AM 49.0704 2.5814 265° West 132 152 400  Level FlightAware ADS-B